Time,TemperatureF,DewpointF,PressureIn,WindDirection,WindDirectionDegrees,WindSpeedMPH,WindSpeedGustMPH,Humidity,HourlyPrecipIn,Conditions,Clouds,dailyrainin,SoftwareType,DateUTC
2013-07-11 09:17:00,72.3,72.3,29.83,SW,225,1.0,3.0,100,0.00,,,0.00,VWS V14.00,2013-07-11 13:17:00,
2013-07-11 09:23:00,72.5,72.5,29.86,SSW,208,1.0,5.0,100,0.00,,,0.01,VWS V14.00,2013-07-11 13:23:00,
2013-07-11 09:29:00,72.3,72.3,29.86,SSW,208,0.0,5.0,100,0.00,,,0.01,VWS V14.00,2013-07-11 13:29:00,
2013-07-11 09:34:00,72.3,72.3,29.86,SSW,208,2.0,5.0,100,0.00,,,0.01,VWS V14.00,2013-07-11 13:34:00,
2013-07-11 09:38:00,72.1,72.1,29.86,SSW,208,1.0,5.0,100,0.00,,,0.01,VWS V14.00,2013-07-11 13:38:00,
2013-07-11 09:44:00,72.0,72.0,29.86,SSW,208,1.0,5.0,100,0.00,,,0.02,VWS V14.00,2013-07-11 13:44:00,
2013-07-11 09:49:00,72.1,72.1,29.86,SSW,207,2.0,5.0,100,0.00,,,0.03,VWS V14.00,2013-07-11 13:49:00,
2013-07-11 09:54:00,72.0,72.0,29.86,West,262,1.0,6.0,100,0.00,,,0.03,VWS V14.00,2013-07-11 13:54:00,
2013-07-11 10:00:00,72.0,72.0,29.86,West,262,2.0,6.0,100,0.00,,,0.04,VWS V14.00,2013-07-11 14:00:00,
2013-07-11 10:05:00,71.8,71.8,29.85,West,262,0.0,6.0,100,0.00,,-RA,0.04,VWS V14.00,2013-07-11 14:05:00,
2013-07-11 10:10:00,71.8,71.8,29.85,West,262,1.0,6.0,100,0.00,,-RA,0.04,VWS V14.00,2013-07-11 14:10:00,
2013-07-11 10:15:00,71.8,71.8,29.85,West,262,1.0,6.0,100,0.00,,-RA,0.04,VWS V14.00,2013-07-11 14:15:00,
2013-07-11 10:20:00,71.4,71.4,29.86,West,262,2.0,6.0,100,0.00,,-RA,0.04,VWS V14.00,2013-07-11 14:20:00,
2013-07-11 10:25:00,71.4,71.4,29.86,West,262,1.0,6.0,100,0.00,,-RA,0.04,VWS V14.00,2013-07-11 14:25:00,
2013-07-11 10:30:00,71.3,71.3,29.86,West,262,2.0,6.0,100,0.00,,-RA,0.04,VWS V14.00,2013-07-11 14:30:00,
2013-07-11 10:36:00,71.3,71.3,29.86,West,261,1.0,6.0,100,0.00,,-RA,0.05,VWS V14.00,2013-07-11 14:36:00,
2013-07-11 10:41:00,71.3,71.3,29.86,West,261,1.0,6.0,100,0.00,,-RA,0.05,VWS V14.00,2013-07-11 14:41:00,
2013-07-11 10:46:00,71.3,71.3,29.86,West,261,1.0,6.0,100,0.01,,-RA,0.06,VWS V14.00,2013-07-11 14:46:00,
2013-07-11 10:51:00,71.3,71.3,29.87,West,261,1.0,6.0,100,0.02,,-RA,0.07,VWS V14.00,2013-07-11 14:51:00,
2013-07-11 10:56:00,71.8,71.8,29.86,West,261,1.0,6.0,100,0.02,,-RA,0.07,VWS V14.00,2013-07-11 14:56:00,
2013-07-11 11:01:00,72.0,72.0,29.87,West,261,3.0,6.0,100,0.01,,-RA,0.07,VWS V14.00,2013-07-11 15:01:00,
2013-07-11 11:06:00,72.1,72.1,29.87,West,261,0.0,6.0,100,0.01,,-RA,0.07,VWS V14.00,2013-07-11 15:06:00,
2013-07-11 11:12:00,72.5,72.5,29.86,West,261,1.0,6.0,100,0.01,,-RA,0.07,VWS V14.00,2013-07-11 15:12:00,
2013-07-11 11:17:00,72.6,72.6,29.87,West,261,1.0,6.0,100,0.01,,-RA,0.07,VWS V14.00,2013-07-11 15:17:00,
2013-07-11 11:22:00,72.5,72.5,29.86,West,261,1.0,6.0,100,0.01,,-RA,0.07,VWS V14.00,2013-07-11 15:22:00,
2013-07-11 11:27:00,72.8,72.8,29.86,West,261,0.0,6.0,100,0.01,,-RA,0.07,VWS V14.00,2013-07-11 15:27:00,
2013-07-11 11:32:00,72.5,72.5,29.86,West,261,1.0,6.0,100,0.01,,-RA,0.07,VWS V14.00,2013-07-11 15:32:00,
2013-07-11 11:37:00,72.8,72.8,29.85,West,261,2.0,6.0,100,0.01,,-RA,0.07,VWS V14.00,2013-07-11 15:37:00,
2013-07-11 11:42:00,72.8,72.8,29.86,West,261,0.0,6.0,100,0.01,,-RA,0.07,VWS V14.00,2013-07-11 15:42:00,
2013-07-11 11:47:00,73.0,73.0,29.86,West,261,0.0,6.0,100,0.01,,-RA,0.07,VWS V14.00,2013-07-11 15:47:00,
2013-07-11 11:52:00,73.2,73.2,29.86,West,261,0.0,6.0,100,0.01,,-RA,0.07,VWS V14.00,2013-07-11 15:52:00,
2013-07-11 11:57:00,73.3,73.3,29.86,West,261,1.0,6.0,100,0.01,,-RA,0.07,VWS V14.00,2013-07-11 15:57:00,
2013-07-11 12:03:00,73.8,73.8,29.86,West,261,0.0,6.0,100,0.01,,OVC100,0.07,VWS V14.00,2013-07-11 16:03:00,
2013-07-11 12:08:00,74.0,74.0,29.85,West,261,1.0,6.0,100,0.00,,OVC100,0.07,VWS V14.00,2013-07-11 16:08:00,
2013-07-11 12:13:00,74.5,74.5,29.85,West,261,0.0,6.0,100,0.00,,OVC100,0.07,VWS V14.00,2013-07-11 16:13:00,
2013-07-11 12:18:00,74.5,74.5,29.85,West,261,2.0,6.0,100,0.00,,OVC100,0.07,VWS V14.00,2013-07-11 16:18:00,
2013-07-11 12:23:00,74.7,74.7,29.85,West,261,0.0,6.0,100,0.00,,OVC100,0.07,VWS V14.00,2013-07-11 16:23:00,
2013-07-11 12:29:00,75.0,75.0,29.86,West,261,1.0,6.0,100,0.00,,OVC100,0.07,VWS V14.00,2013-07-11 16:29:00,
2013-07-11 12:34:00,75.0,75.0,29.85,SSW,197,0.0,6.0,100,0.00,,OVC100,0.07,VWS V14.00,2013-07-11 16:34:00,
2013-07-11 12:39:00,75.6,75.6,29.85,SSW,197,0.0,6.0,100,0.00,,OVC100,0.07,VWS V14.00,2013-07-11 16:39:00,
2013-07-11 12:44:00,75.9,75.9,29.85,SSW,198,0.0,6.0,100,0.00,,OVC100,0.07,VWS V14.00,2013-07-11 16:44:00,
2013-07-11 12:49:00,76.6,76.6,29.85,SSW,198,0.0,6.0,100,0.00,,OVC100,0.07,VWS V14.00,2013-07-11 16:49:00,
2013-07-11 12:54:00,77.2,77.2,29.85,SSW,198,0.0,6.0,100,0.00,,OVC100,0.07,VWS V14.00,2013-07-11 16:54:00,
2013-07-11 13:00:00,77.5,77.5,29.85,SSW,198,0.0,6.0,100,0.00,,OVC100,0.00,VWS V14.00,2013-07-11 17:00:00,
2013-07-11 13:05:00,77.7,77.4,29.86,SSW,199,0.0,6.0,99,0.00,,CLR,0.07,VWS V14.00,2013-07-11 17:05:00,
2013-07-11 13:10:00,78.1,77.2,29.86,SSW,199,0.0,6.0,97,0.00,,CLR,0.07,VWS V14.00,2013-07-11 17:10:00,
2013-07-11 13:16:00,78.2,76.0,29.85,SSW,199,0.0,6.0,93,0.00,,CLR,0.07,VWS V14.00,2013-07-11 17:16:00,
2013-07-11 13:21:00,78.4,75.6,29.85,SSW,202,0.0,6.0,91,0.00,,CLR,0.07,VWS V14.00,2013-07-11 17:21:00,
2013-07-11 13:27:00,78.6,75.4,29.85,SSW,202,0.0,6.0,90,0.00,,CLR,0.07,VWS V14.00,2013-07-11 17:27:00,
2013-07-11 13:32:00,79.0,75.8,29.85,SSW,197,3.0,6.0,90,0.00,,CLR,0.07,VWS V14.00,2013-07-11 17:32:00,
2013-07-11 13:37:00,79.0,75.8,29.85,South,188,1.0,6.0,90,0.00,,CLR,0.07,VWS V14.00,2013-07-11 17:37:00,
2013-07-11 13:42:00,79.0,75.8,29.85,South,189,1.0,6.0,90,0.00,,CLR,0.07,VWS V14.00,2013-07-11 17:42:00,
2013-07-11 13:47:00,79.2,76.7,29.85,South,189,1.0,6.0,92,0.00,,CLR,0.07,VWS V14.00,2013-07-11 17:47:00,
2013-07-11 13:52:00,79.5,76.0,29.85,SSW,195,2.0,6.0,89,0.00,,CLR,0.07,VWS V14.00,2013-07-11 17:52:00,
2013-07-11 13:57:00,79.9,76.7,29.84,SSW,195,3.0,6.0,90,0.00,,CLR,0.07,VWS V14.00,2013-07-11 17:57:00,
2013-07-11 14:03:00,79.9,76.7,29.84,SSW,195,1.0,6.0,90,0.00,,CLR,0.07,VWS V14.00,2013-07-11 18:03:00,
2013-07-11 14:08:00,79.5,75.6,29.85,SSW,195,0.0,6.0,88,0.00,,CLR,0.07,VWS V14.00,2013-07-11 18:08:00,
2013-07-11 14:13:00,79.2,75.3,29.84,SSW,192,1.0,6.0,88,0.00,,CLR,0.07,VWS V14.00,2013-07-11 18:13:00,
2013-07-11 14:19:00,79.2,75.3,29.85,SSW,196,0.0,6.0,88,0.00,,CLR,0.07,VWS V14.00,2013-07-11 18:19:00,
2013-07-11 14:24:00,79.2,75.3,29.84,SSW,203,2.0,6.0,88,0.00,,CLR,0.07,VWS V14.00,2013-07-11 18:24:00,
2013-07-11 14:29:00,79.2,76.0,29.84,SSW,203,0.0,6.0,90,0.00,,CLR,0.07,VWS V14.00,2013-07-11 18:29:00,
2013-07-11 14:34:00,79.2,76.0,29.84,SSW,201,1.0,6.0,90,0.00,,CLR,0.07,VWS V14.00,2013-07-11 18:34:00,
2013-07-11 14:40:00,79.2,76.0,29.84,SSW,201,1.0,6.0,90,0.00,,CLR,0.07,VWS V14.00,2013-07-11 18:40:00,
2013-07-11 14:45:00,79.2,76.3,29.85,SSW,201,1.0,6.0,91,0.00,,CLR,0.07,VWS V14.00,2013-07-11 18:45:00,
2013-07-11 14:50:00,79.2,76.0,29.85,SSW,201,1.0,6.0,90,0.00,,CLR,0.07,VWS V14.00,2013-07-11 18:50:00,
2013-07-11 14:55:00,79.2,76.0,29.84,SSW,201,2.0,6.0,90,0.00,,CLR,0.07,VWS V14.00,2013-07-11 18:55:00,
2013-07-11 15:00:00,79.3,75.8,29.84,SSW,199,3.0,6.0,89,0.00,,CLR,0.07,VWS V14.00,2013-07-11 19:00:00,
2013-07-11 15:05:00,79.2,75.7,29.84,SSW,199,2.0,6.0,89,0.00,,OVC100,0.07,VWS V14.00,2013-07-11 19:05:00,
2013-07-11 15:10:00,79.0,75.5,29.84,SSE,163,1.0,6.0,89,0.00,,OVC100,0.07,VWS V14.00,2013-07-11 19:10:00,
2013-07-11 15:16:00,79.2,75.7,29.83,South,171,1.0,6.0,89,0.00,,OVC100,0.07,VWS V14.00,2013-07-11 19:16:00,
2013-07-11 15:21:00,79.2,75.7,29.84,SSE,161,2.0,6.0,89,0.00,,OVC100,0.07,VWS V14.00,2013-07-11 19:21:00,
2013-07-11 15:26:00,79.0,75.5,29.83,SSE,153,1.0,6.0,89,0.00,,OVC100,0.07,VWS V14.00,2013-07-11 19:26:00,
2013-07-11 15:31:00,78.8,75.3,29.84,SSE,150,1.0,6.0,89,0.02,,OVC100,0.09,VWS V14.00,2013-07-11 19:31:00,
2013-07-11 15:36:00,78.2,75.7,29.84,SE,145,3.0,6.0,92,0.02,,OVC100,0.09,VWS V14.00,2013-07-11 19:36:00,
2013-07-11 15:41:00,77.5,76.0,29.84,SE,142,2.0,6.0,95,0.02,,OVC100,0.09,VWS V14.00,2013-07-11 19:41:00,
2013-07-11 15:46:00,77.0,75.8,29.84,SE,137,2.0,6.0,96,0.02,,OVC100,0.09,VWS V14.00,2013-07-11 19:46:00,
2013-07-11 15:51:00,76.3,75.4,29.84,SE,136,1.0,6.0,97,0.01,,OVC100,0.09,VWS V14.00,2013-07-11 19:51:00,
2013-07-11 15:56:00,75.8,75.2,29.84,SE,136,0.0,6.0,98,0.01,,OVC100,0.09,VWS V14.00,2013-07-11 19:56:00,
2013-07-11 16:01:00,75.4,74.8,29.84,SE,137,1.0,6.0,98,0.01,,FEW020,0.09,VWS V14.00,2013-07-11 20:01:00,
2013-07-11 16:07:00,75.4,75.1,29.84,ESE,118,1.0,6.0,99,0.01,,FEW020,0.09,VWS V14.00,2013-07-11 20:07:00,
2013-07-11 16:12:00,75.6,75.3,29.84,NE,42,0.0,6.0,99,0.01,,FEW020,0.09,VWS V14.00,2013-07-11 20:12:00,
2013-07-11 16:17:00,75.9,75.6,29.85,NE,42,0.0,6.0,99,0.01,,FEW020,0.09,VWS V14.00,2013-07-11 20:17:00,
2013-07-11 16:22:00,75.9,75.6,29.84,NE,42,0.0,6.0,99,0.01,,FEW020,0.09,VWS V14.00,2013-07-11 20:22:00,
2013-07-11 16:27:00,75.9,75.6,29.85,NE,42,0.0,6.0,99,0.01,,FEW020,0.09,VWS V14.00,2013-07-11 20:27:00,
2013-07-11 16:32:00,76.3,76.3,29.86,NE,42,0.0,6.0,100,0.01,,FEW020,0.09,VWS V14.00,2013-07-11 20:32:00,
2013-07-11 16:38:00,76.6,76.6,29.85,NE,42,1.0,6.0,100,0.01,,FEW020,0.09,VWS V14.00,2013-07-11 20:38:00,
2013-07-11 16:43:00,77.0,76.7,29.85,NE,42,0.0,6.0,99,0.01,,FEW020,0.09,VWS V14.00,2013-07-11 20:43:00,
2013-07-11 16:48:00,77.7,77.4,29.85,NE,42,0.0,6.0,99,0.01,,FEW020,0.09,VWS V14.00,2013-07-11 20:48:00,
2013-07-11 16:53:00,78.0,77.1,29.85,NE,42,2.0,6.0,97,0.01,,FEW020,0.09,VWS V14.00,2013-07-11 20:53:00,
2013-07-11 16:59:00,78.2,76.7,29.85,NE,40,0.0,6.0,95,0.00,,FEW020,0.09,VWS V14.00,2013-07-11 20:59:00,
2013-07-11 17:04:00,78.4,76.2,29.85,NE,40,1.0,6.0,93,0.00,,CLR,0.09,VWS V14.00,2013-07-11 21:04:00,
2013-07-11 17:09:00,78.4,76.2,29.85,NE,40,0.0,6.0,93,0.00,,CLR,0.09,VWS V14.00,2013-07-11 21:09:00,
2013-07-11 17:14:00,78.6,76.4,29.85,NE,40,0.0,6.0,93,0.00,,CLR,0.09,VWS V14.00,2013-07-11 21:14:00,
2013-07-11 17:20:00,78.6,76.4,29.85,NE,40,0.0,6.0,93,0.00,,CLR,0.09,VWS V14.00,2013-07-11 21:20:00,
2013-07-11 17:25:00,78.6,76.7,29.84,NE,40,0.0,6.0,94,0.00,,CLR,0.09,VWS V14.00,2013-07-11 21:25:00,
2013-07-11 17:30:00,78.6,76.4,29.84,NE,40,0.0,6.0,93,0.00,,CLR,0.09,VWS V14.00,2013-07-11 21:30:00,
2013-07-11 17:35:00,79.0,76.8,29.85,NE,40,0.0,6.0,93,0.00,,CLR,0.09,VWS V14.00,2013-07-11 21:35:00,
2013-07-11 17:40:00,79.2,77.3,29.85,NE,40,0.0,6.0,94,0.00,,CLR,0.09,VWS V14.00,2013-07-11 21:40:00,
2013-07-11 17:45:00,79.3,77.1,29.85,NE,40,0.0,6.0,93,0.00,,CLR,0.09,VWS V14.00,2013-07-11 21:45:00,
2013-07-11 17:50:00,79.5,77.6,29.85,NE,40,0.0,6.0,94,0.00,,CLR,0.09,VWS V14.00,2013-07-11 21:50:00,
2013-07-11 17:55:00,79.5,77.3,29.85,NE,40,0.0,6.0,93,0.00,,CLR,0.09,VWS V14.00,2013-07-11 21:55:00,
2013-07-11 18:01:00,79.3,77.1,29.85,NE,40,0.0,6.0,93,0.00,,CLR,0.09,VWS V14.00,2013-07-11 22:01:00,
2013-07-11 18:06:00,79.3,77.1,29.86,NE,40,0.0,6.0,93,0.00,,CLR,0.09,VWS V14.00,2013-07-11 22:06:00,
2013-07-11 18:11:00,79.5,77.3,29.85,NE,40,0.0,6.0,93,0.00,,CLR,0.09,VWS V14.00,2013-07-11 22:11:00,
2013-07-11 18:16:00,79.3,77.1,29.86,NE,40,0.0,6.0,93,0.00,,CLR,0.09,VWS V14.00,2013-07-11 22:16:00,
2013-07-11 18:21:00,79.2,76.7,29.86,NE,40,0.0,6.0,92,0.00,,CLR,0.09,VWS V14.00,2013-07-11 22:21:00,
2013-07-11 18:26:00,79.2,77.3,29.86,NE,40,0.0,6.0,94,0.00,,CLR,0.09,VWS V14.00,2013-07-11 22:26:00,
2013-07-11 18:31:00,79.0,77.1,29.87,NE,40,1.0,6.0,94,0.00,,CLR,0.09,VWS V14.00,2013-07-11 22:31:00,
2013-07-11 18:36:00,78.6,76.7,29.87,NE,40,0.0,6.0,94,0.00,,CLR,0.09,VWS V14.00,2013-07-11 22:36:00,
2013-07-11 18:41:00,78.2,76.3,29.86,NE,40,0.0,6.0,94,0.00,,CLR,0.09,VWS V14.00,2013-07-11 22:41:00,
2013-07-11 18:46:00,78.2,76.7,29.86,NE,40,0.0,6.0,95,0.00,,CLR,0.09,VWS V14.00,2013-07-11 22:46:00,
2013-07-11 18:52:00,78.0,76.5,29.87,NE,40,0.0,6.0,95,0.00,,CLR,0.09,VWS V14.00,2013-07-11 22:52:00,
2013-07-11 18:57:00,77.9,76.7,29.87,NE,40,0.0,6.0,96,0.00,,CLR,0.09,VWS V14.00,2013-07-11 22:57:00,
2013-07-11 19:02:00,77.5,76.3,29.87,NE,40,0.0,6.0,96,0.00,,OVC055,0.09,VWS V14.00,2013-07-11 23:02:00,
2013-07-11 19:08:00,77.2,76.3,29.87,NE,40,0.0,6.0,97,0.00,,OVC055,0.09,VWS V14.00,2013-07-11 23:08:00,
2013-07-11 19:13:00,76.6,75.7,29.87,NE,40,0.0,6.0,97,0.00,,OVC055,0.09,VWS V14.00,2013-07-11 23:13:00,
2013-07-11 19:18:00,76.4,75.8,29.88,NE,40,1.0,6.0,98,0.00,,OVC055,0.09,VWS V14.00,2013-07-11 23:18:00,
2013-07-11 19:23:00,76.1,75.2,29.88,NE,40,0.0,6.0,97,0.00,,OVC055,0.09,VWS V14.00,2013-07-11 23:23:00,
2013-07-11 19:29:00,75.7,74.5,29.89,NE,40,0.0,6.0,96,0.00,,OVC055,0.09,VWS V14.00,2013-07-11 23:29:00,
2013-07-11 19:34:00,75.6,74.4,29.89,NE,40,1.0,6.0,96,0.00,,OVC055,0.09,VWS V14.00,2013-07-11 23:34:00,
2013-07-11 19:39:00,75.4,74.2,29.89,NE,40,1.0,6.0,96,0.00,,OVC055,0.09,VWS V14.00,2013-07-11 23:39:00,
2013-07-11 19:44:00,75.0,73.5,29.89,NE,40,1.0,6.0,95,0.00,,OVC055,0.09,VWS V14.00,2013-07-11 23:44:00,
2013-07-11 19:49:00,74.9,73.1,29.89,NE,40,0.0,6.0,94,0.00,,OVC055,0.09,VWS V14.00,2013-07-11 23:49:00,
2013-07-11 19:54:00,74.7,72.9,29.89,NE,40,0.0,6.0,94,0.00,,OVC055,0.09,VWS V14.00,2013-07-11 23:54:00,
2013-07-11 20:00:00,74.3,72.5,29.89,NE,40,1.0,6.0,94,0.00,,OVC055,0.09,VWS V14.00,2013-07-12 00:00:00,
2013-07-11 20:05:00,74.2,72.7,29.90,NE,40,1.0,6.0,95,0.00,,OVC060,0.09,VWS V14.00,2013-07-12 00:05:00,
2013-07-11 20:11:00,74.1,72.6,29.90,NE,40,0.0,6.0,95,0.00,,OVC060,0.09,VWS V14.00,2013-07-12 00:11:00,
2013-07-11 20:16:00,74.0,72.5,29.89,NE,40,0.0,6.0,95,0.00,,OVC060,0.09,VWS V14.00,2013-07-12 00:16:00,
2013-07-11 20:21:00,73.8,72.3,29.90,NE,40,0.0,6.0,95,0.00,,OVC060,0.09,VWS V14.00,2013-07-12 00:21:00,
2013-07-11 20:26:00,73.5,72.0,29.91,NE,40,0.0,6.0,95,0.00,,OVC060,0.09,VWS V14.00,2013-07-12 00:26:00,
2013-07-11 20:32:00,73.3,71.8,29.90,NE,40,0.0,6.0,95,0.00,,OVC060,0.09,VWS V14.00,2013-07-12 00:32:00,
2013-07-11 20:37:00,73.2,72.0,29.90,NE,40,0.0,6.0,96,0.00,,OVC060,0.09,VWS V14.00,2013-07-12 00:37:00,
2013-07-11 20:42:00,73.0,71.8,29.91,NE,40,0.0,6.0,96,0.00,,OVC060,0.09,VWS V14.00,2013-07-12 00:42:00,
2013-07-11 20:47:00,72.8,71.9,29.91,NE,40,0.0,6.0,97,0.00,,OVC060,0.09,VWS V14.00,2013-07-12 00:47:00,
2013-07-11 20:52:00,72.5,71.6,29.91,NE,40,0.0,6.0,97,0.00,,OVC060,0.09,VWS V14.00,2013-07-12 00:52:00,
2013-07-11 20:58:00,72.3,71.4,29.91,NE,40,0.0,6.0,97,0.00,,OVC060,0.09,VWS V14.00,2013-07-12 00:58:00,
2013-07-11 21:03:00,72.1,71.2,29.91,NE,40,0.0,6.0,97,0.00,,BKN055,0.09,VWS V14.00,2013-07-12 01:03:00,
2013-07-11 21:08:00,72.0,71.4,29.91,NE,40,0.0,6.0,98,0.00,,BKN055,0.09,VWS V14.00,2013-07-12 01:08:00,
2013-07-11 21:13:00,71.8,71.5,29.92,NE,40,0.0,6.0,99,0.00,,BKN055,0.09,VWS V14.00,2013-07-12 01:13:00,
2013-07-11 21:19:00,71.5,71.2,29.91,NE,40,0.0,6.0,99,0.00,,BKN055,0.09,VWS V14.00,2013-07-12 01:19:00,
2013-07-11 21:25:00,71.3,71.0,29.92,NE,40,0.0,6.0,99,0.00,,BKN055,0.09,VWS V14.00,2013-07-12 01:25:00,
2013-07-11 21:30:00,70.9,70.9,29.92,NE,40,0.0,6.0,100,0.00,,BKN055,0.09,VWS V14.00,2013-07-12 01:30:00,
2013-07-11 21:35:00,70.8,70.8,29.93,NE,40,0.0,6.0,100,0.00,,BKN055,0.09,VWS V14.00,2013-07-12 01:35:00,
2013-07-11 21:40:00,70.6,70.6,29.93,NE,40,0.0,6.0,100,0.00,,BKN055,0.09,VWS V14.00,2013-07-12 01:40:00,
2013-07-11 21:45:00,70.4,70.4,29.93,NE,40,0.0,6.0,100,0.00,,BKN055,0.09,VWS V14.00,2013-07-12 01:45:00,
2013-07-11 21:50:00,70.3,70.3,29.93,NE,40,0.0,6.0,100,0.00,,BKN055,0.09,VWS V14.00,2013-07-12 01:50:00,
2013-07-11 21:55:00,70.3,70.3,29.93,NE,40,0.0,6.0,100,0.00,,BKN055,0.09,VWS V14.00,2013-07-12 01:55:00,
2013-07-11 22:01:00,69.9,69.9,29.92,NE,40,0.0,6.0,100,0.00,,BKN085,0.09,VWS V14.00,2013-07-12 02:01:00,
2013-07-11 22:06:00,69.8,69.8,29.92,NE,40,0.0,6.0,100,0.00,,BKN085,0.09,VWS V14.00,2013-07-12 02:06:00,
2013-07-11 22:11:00,69.6,69.6,29.93,NE,40,0.0,6.0,100,0.00,,BKN085,0.09,VWS V14.00,2013-07-12 02:11:00,
2013-07-11 22:17:00,69.4,69.4,29.93,NE,40,0.0,6.0,100,0.00,,BKN085,0.09,VWS V14.00,2013-07-12 02:17:00,
2013-07-11 22:22:00,69.3,69.3,29.92,NE,40,0.0,6.0,100,0.00,,BKN085,0.09,VWS V14.00,2013-07-12 02:22:00,
2013-07-11 22:27:00,69.1,69.1,29.93,NE,40,0.0,6.0,100,0.00,,BKN085,0.09,VWS V14.00,2013-07-12 02:27:00,
2013-07-11 22:32:00,68.9,68.9,29.93,NE,40,0.0,6.0,100,0.00,,BKN085,0.09,VWS V14.00,2013-07-12 02:32:00,
2013-07-11 22:38:00,68.8,68.8,29.92,NE,40,0.0,6.0,100,0.00,,BKN085,0.09,VWS V14.00,2013-07-12 02:38:00,
2013-07-11 22:43:00,68.6,68.6,29.93,NE,40,0.0,6.0,100,0.00,,BKN085,0.09,VWS V14.00,2013-07-12 02:43:00,
2013-07-11 22:48:00,68.6,68.6,29.93,NE,40,0.0,6.0,100,0.00,,BKN085,0.09,VWS V14.00,2013-07-12 02:48:00,
2013-07-11 22:53:00,68.4,68.4,29.94,NE,40,0.0,6.0,100,0.00,,BKN085,0.09,VWS V14.00,2013-07-12 02:53:00,
2013-07-11 22:58:00,68.3,68.3,29.94,NE,40,0.0,6.0,100,0.00,,BKN085,0.09,VWS V14.00,2013-07-12 02:58:00,
2013-07-11 23:03:00,68.3,68.3,29.93,NE,40,0.0,6.0,100,0.00,,BKN065,0.09,VWS V14.00,2013-07-12 03:03:00,
2013-07-11 23:08:00,68.1,68.1,29.93,NE,40,0.0,6.0,100,0.00,,BKN065,0.09,VWS V14.00,2013-07-12 03:08:00,
2013-07-11 23:13:00,68.1,68.1,29.94,NE,40,0.0,6.0,100,0.00,,BKN065,0.09,VWS V14.00,2013-07-12 03:13:00,
2013-07-11 23:18:00,68.1,68.1,29.94,NE,40,4.0,6.0,100,0.00,,BKN065,0.09,VWS V14.00,2013-07-12 03:18:00,
2013-07-11 23:23:00,68.1,68.1,29.94,NE,40,0.0,6.0,100,0.00,,BKN065,0.09,VWS V14.00,2013-07-12 03:23:00,
2013-07-11 23:28:00,68.1,68.1,29.94,NE,40,0.0,6.0,100,0.00,,BKN065,0.09,VWS V14.00,2013-07-12 03:28:00,
2013-07-11 23:33:00,68.1,68.1,29.94,NE,40,0.0,6.0,100,0.00,,BKN065,0.09,VWS V14.00,2013-07-12 03:33:00,
2013-07-11 23:38:00,68.0,68.0,29.94,NE,40,0.0,6.0,100,0.00,,BKN065,0.09,VWS V14.00,2013-07-12 03:38:00,
2013-07-11 23:43:00,68.0,68.0,29.94,NE,40,0.0,6.0,100,0.00,,BKN065,0.09,VWS V14.00,2013-07-12 03:43:00,
2013-07-11 23:48:00,68.0,68.0,29.94,NE,40,0.0,6.0,100,0.00,,BKN065,0.09,VWS V14.00,2013-07-12 03:48:00,
2013-07-11 23:54:00,67.8,67.8,29.95,NE,40,0.0,6.0,100,0.00,,BKN065,0.09,VWS V14.00,2013-07-12 03:54:00,
2013-07-11 23:59:00,67.6,67.6,29.95,NE,40,1.0,6.0,100,0.00,,BKN065,0.09,VWS V14.00,2013-07-12 03:59:00,